Topsail Beach, NC

2:49 PM EDT on October 23, 2014 (GMT -0400)
New River Marine Corps Air Station | Change Station
CLOSE
Current Station
Airport
Location: New River MCAS,
Elevation: 26 ft
Nearby Weather Stations

Elev 26 ft 34.71 °N, 77.44 °W | Updated 53 minutes ago

Clear
Clear
67 °F
Feels Like 67 °F
N
13
Wind Variable Wind from West

Today
High -- | Low -- °F
--% Chance of Precip.
Yesterday
High -- | Low -- °F
Precip. -- in
7:22 AM 6:25 PM
Waning Crescent, 0% visible
Pressure 29.93 in
Visibility 10.0 miles
Clouds Clear
Dew Point 44 °F
Humidity 44%
Rainfall 0.00 in
Snow Depth Not available.
UV 5 out of 12
Pollen 3.10 out of 12
Air Quality Not available.
Flu Activity Sporadic
METAR KNCA 231756Z AUTO 28011KT 10SM CLR 19/07 A2992 RMK AO2 SLP133 T01940067 10194 20083 58027

More Conditions Fewer Conditions

Pressure 29.93 in
Visibility 10.0 miles
Clouds Clear
Dew Point 44 °F
Humidity 44%
Rainfall 0.00 in
Snow Depth Not available.
UV 5 out of 12
Pollen 3.10 out of 12
Air Quality Not available.
Flu Activity Sporadic
METAR KNCA 231756Z AUTO 28011KT 10SM CLR 19/07 A2992 RMK AO2 SLP133 T01940067 10194 20083 58027

More Conditions Fewer Conditions

10-Day Weather Forecast

Almanac

Astronomy

Oct. 23, 2014 Rise Set
Actual Time 7:22 AM EDT 6:25 PM EDT
Civil Twilight 6:56 AM EDT 6:51 PM EDT
Nautical Twilight 6:27 AM EDT 7:20 PM EDT
Astronomical Twilight 5:57 AM EDT 7:50 PM EDT
Moon 7:00 AM EDT 6:26 PM EDT
Length of Visible Light 11h 54m
Length of Day
11h 03m
Tomorrow will be 2m 0s shorter.
Waning Crescent, 0% of the Moon is Illuminated
Today
Waning Crescent
Oct 23
New
Oct 30
First Quarter
Nov 6
Full
Nov 14
Last Quarter

Today's Extremes

State Highs State Lows

Community

WunderPhotos

Upload Photos

1,764,339 photos uploaded!

WunderBlogs® & News

By Dr. Jeff Masters
Director of Meteorology, Weather Underground
By Kari Strenfel
Meteorologist, Weather Underground
By Christopher C. Burt
Weather Historian, Weather Underground
October 23, 2014
October 23, 2014
October 23, 2014

Nearby

Snow Depth

Station Depth Elevation
No new snow has been reported.

Earthquake Activity

City Distance Mag. Time & Date
No recent earthquake activity has been reported nearby.
Minimum magnitude displayed is 2.5.

Coastal Water Temperatures

Place Temperature
Beaufort, NC 66.0 °F
Johnny Mercer Pier, Wrightsville Beach, NC 73.0 °F
Hatteras, NC 62.1 °F
Oregon Inlet Marina, NC 63.0 °F

Nearby Weather Stations